Terminal Aerodrome Forecast
Issued by NWS

Home | Current Version | Previous Version | Text Only | Print | Product List | Glossary On
Versions: 1 2 3 4 5 6 7 8 9 10 11 12 13 14 15
000
FTUS45 KRIW 242300
TAFCPR
TAF
KCPR 242329Z 2500/2524 26012G22KT P6SM VCSH BKN050
     FM250200 28015KT P6SM VCSH BKN050
     FM250600 36010KT P6SM VCSH OVC030
     FM250900 01009KT 1SM -SN OVC008
     FM251500 03006KT 5SM -SN SCT010 OVC030
     FM251800 30008KT P6SM BKN050=

USA.gov is the U.S. government's official web portal to all federal, state and local government web resources and services.